createdAt,value
2018-03-28T00:00:30.521Z,6.72
2018-03-28T00:02:57.689Z,6.23
2018-03-28T00:05:25.108Z,6.41
2018-03-28T00:07:52.322Z,6.35
2018-03-28T00:10:19.734Z,6.18
2018-03-28T00:12:47.177Z,5.96
2018-03-28T00:15:14.685Z,6.36
2018-03-28T00:17:41.965Z,6.40
2018-03-28T00:20:09.180Z,6.41
2018-03-28T00:22:36.393Z,5.94
2018-03-28T00:25:03.554Z,5.92
2018-03-28T00:27:31.600Z,6.37
2018-03-28T00:29:59.140Z,6.41
2018-03-28T00:32:26.374Z,6.22
2018-03-28T00:34:54.246Z,6.18
2018-03-28T00:37:24.785Z,5.88
2018-03-28T00:39:52.090Z,5.69
2018-03-28T00:42:19.142Z,5.97
2018-03-28T00:44:46.250Z,5.97
2018-03-28T00:47:13.582Z,5.35
2018-03-28T00:49:40.642Z,5.14
2018-03-28T00:52:07.723Z,5.04
2018-03-28T00:57:23.406Z,5.22
2018-03-28T00:59:50.599Z,5.53
2018-03-28T01:02:17.748Z,5.41
2018-03-28T01:04:45.017Z,5.24
2018-03-28T01:07:12.098Z,5.07
2018-03-28T01:09:39.325Z,5.14
2018-03-28T01:12:06.538Z,5.07
2018-03-28T01:14:33.841Z,5.21
2018-03-28T01:17:05.045Z,5.33
2018-03-28T01:19:32.270Z,4.66
2018-03-28T01:21:59.448Z,4.81
2018-03-28T01:24:26.610Z,5.22
2018-03-28T01:26:56.990Z,5.05
2018-03-28T01:29:24.218Z,4.88
2018-03-28T01:31:51.437Z,4.81
2018-03-28T01:34:18.737Z,5.20
2018-03-28T01:36:48.902Z,5.47
2018-03-28T01:39:16.854Z,5.21
2018-03-28T01:41:44.161Z,5.16
2018-03-28T01:44:11.386Z,4.76
2018-03-28T01:46:39.620Z,5.06
2018-03-28T01:49:06.795Z,4.78
2018-03-28T01:51:34.029Z,4.79
2018-03-28T01:54:01.261Z,4.74
2018-03-28T01:56:29.634Z,4.63
2018-03-28T01:58:56.817Z,4.78
2018-03-28T02:01:24.096Z,4.66
2018-03-28T02:03:51.328Z,4.89
2018-03-28T02:06:19.700Z,5.12
2018-03-28T02:08:47.689Z,4.65
2018-03-28T02:11:14.999Z,4.88
2018-03-28T02:13:42.276Z,5.02
2018-03-28T02:16:09.713Z,5.30
2018-03-28T02:18:36.893Z,5.59
2018-03-28T02:21:04.060Z,5.49
2018-03-28T02:23:31.283Z,5.43
2018-03-28T02:26:02.159Z,5.17
2018-03-28T02:28:29.462Z,5.07
2018-03-28T02:30:56.650Z,5.38
2018-03-28T02:33:23.766Z,5.18
2018-03-28T02:35:51.996Z,5.07
2018-03-28T02:38:19.231Z,4.87
2018-03-28T02:40:46.469Z,4.71
2018-03-28T02:43:13.610Z,4.74
2018-03-28T02:45:47.134Z,4.94
2018-03-28T02:48:14.255Z,4.98
2018-03-28T02:50:41.437Z,5.13
2018-03-28T02:53:08.736Z,5.43
2018-03-28T02:55:35.948Z,4.83
2018-03-28T02:58:03.238Z,4.94
2018-03-28T03:00:30.556Z,4.70
2018-03-28T03:02:57.826Z,4.72
2018-03-28T03:05:26.022Z,4.82
2018-03-28T03:07:53.301Z,4.94
2018-03-28T03:10:20.575Z,4.66
2018-03-28T03:12:47.842Z,4.64
2018-03-28T03:15:18.124Z,5.18
2018-03-28T03:17:45.378Z,5.45
2018-03-28T03:20:12.674Z,5.00
2018-03-28T03:26:13.578Z,4.92
2018-03-28T03:28:40.716Z,5.13
2018-03-28T03:31:07.957Z,4.89
2018-03-28T03:33:35.447Z,4.98
2018-03-28T03:36:03.550Z,4.68
2018-03-28T03:38:30.785Z,4.53
2018-03-28T03:40:58.082Z,4.50
2018-03-28T03:43:25.378Z,4.70
2018-03-28T03:45:56.821Z,4.59
2018-03-28T03:48:24.058Z,4.58
2018-03-28T03:50:51.368Z,4.67
2018-03-28T03:53:18.469Z,4.21
2018-03-28T03:55:46.698Z,4.50
2018-03-28T03:58:13.886Z,4.29
2018-03-28T04:00:41.002Z,3.98
2018-03-28T04:03:09.058Z,4.26
2018-03-28T04:05:36.226Z,4.17
2018-03-28T04:08:03.361Z,4.20
2018-03-28T04:10:30.594Z,4.20
2018-03-28T04:12:57.790Z,4.44
2018-03-28T04:15:28.808Z,4.42
2018-03-28T04:17:56.069Z,4.38
2018-03-28T04:20:24.015Z,4.72
2018-03-28T04:22:51.693Z,4.57
2018-03-28T04:25:19.247Z,4.79
2018-03-28T04:27:47.231Z,4.90
2018-03-28T04:30:14.578Z,4.60
2018-03-28T04:32:42.360Z,4.81
2018-03-28T04:35:15.449Z,5.03
2018-03-28T04:37:42.498Z,5.16
2018-03-28T04:40:09.814Z,5.22
2018-03-28T04:42:36.988Z,5.11
2018-03-28T04:45:07.182Z,4.92
2018-03-28T04:47:34.394Z,5.31
2018-03-28T04:50:01.654Z,5.40
2018-03-28T04:52:43.659Z,5.04
2018-03-28T04:55:10.948Z,5.32
2018-03-28T04:57:38.049Z,5.44
2018-03-28T05:00:05.077Z,4.81
2018-03-28T05:02:32.270Z,4.95
2018-03-28T05:05:02.825Z,5.34
2018-03-28T05:07:30.878Z,5.33
2018-03-28T05:09:58.066Z,5.29
2018-03-28T05:12:25.259Z,5.13
2018-03-28T05:14:55.623Z,5.77
2018-03-28T05:17:22.842Z,5.68
2018-03-28T05:19:50.050Z,5.59
2018-03-28T05:22:17.045Z,5.66
2018-03-28T05:24:45.390Z,5.83
2018-03-28T05:27:12.625Z,6.04
2018-03-28T05:29:39.758Z,6.02
2018-03-28T05:32:06.984Z,6.13
2018-03-28T05:34:34.602Z,6.42
2018-03-28T05:37:01.894Z,6.35
2018-03-28T05:39:28.951Z,6.30
2018-03-28T05:41:56.031Z,6.27
2018-03-28T05:44:23.344Z,6.54
2018-03-28T05:46:50.842Z,6.78
2018-03-28T05:49:18.278Z,6.85
2018-03-28T05:51:45.496Z,7.10
2018-03-28T05:54:12.820Z,7.16
2018-03-28T05:56:43.943Z,7.14
2018-03-28T05:59:11.204Z,7.20
2018-03-28T06:01:38.466Z,7.23
2018-03-28T06:04:06.614Z,6.86
2018-03-28T06:06:35.214Z,7.23
2018-03-28T06:09:02.273Z,7.03
2018-03-28T06:11:29.584Z,7.23
2018-03-28T06:13:56.957Z,7.45
2018-03-28T06:16:24.313Z,7.41
2018-03-28T06:18:51.496Z,7.59
2018-03-28T06:21:18.908Z,7.71
2018-03-28T06:23:45.930Z,7.97
2018-03-28T06:26:13.347Z,7.01
2018-03-28T06:28:40.625Z,6.12
2018-03-28T06:31:07.966Z,5.71
2018-03-28T06:33:35.210Z,5.43
2018-03-28T06:36:03.585Z,5.42
2018-03-28T06:38:30.877Z,5.45
2018-03-28T06:40:58.042Z,5.69
2018-03-28T06:43:25.347Z,6.42
2018-03-28T06:45:52.670Z,6.53
2018-03-28T06:48:19.934Z,7.11
2018-03-28T06:50:47.371Z,7.19
2018-03-28T06:53:14.500Z,7.12
2018-03-28T06:55:42.833Z,7.28
2018-03-28T06:58:10.561Z,7.17
2018-03-28T07:00:37.781Z,7.27
2018-03-28T07:03:05.110Z,7.44
2018-03-28T07:05:32.889Z,7.64
2018-03-28T07:08:00.102Z,7.83
2018-03-28T07:10:27.376Z,8.02
2018-03-28T07:12:54.669Z,7.78
2018-03-28T07:15:22.990Z,7.53
2018-03-28T07:17:50.322Z,8.03
2018-03-28T07:20:17.396Z,8.37
2018-03-28T07:22:44.659Z,8.42
2018-03-28T07:25:15.738Z,8.12
2018-03-28T07:27:42.975Z,7.38
2018-03-28T07:30:10.013Z,7.26
2018-03-28T07:32:37.265Z,6.95
2018-03-28T07:35:05.438Z,7.04
2018-03-28T07:37:33.365Z,7.07
2018-03-28T07:40:00.431Z,6.99
2018-03-28T07:45:19.874Z,7.07
2018-03-28T07:47:47.089Z,7.11
2018-03-28T07:50:14.426Z,7.12
2018-03-28T07:52:41.590Z,7.00
2018-03-28T07:55:09.168Z,7.10
2018-03-28T07:57:36.879Z,6.90
2018-03-28T08:00:04.054Z,7.16
2018-03-28T08:02:31.400Z,7.62
2018-03-28T08:05:01.950Z,7.12
2018-03-28T08:07:29.240Z,7.29
2018-03-28T08:09:56.633Z,7.25
2018-03-28T08:12:24.582Z,7.84
2018-03-28T08:14:55.168Z,8.07
2018-03-28T08:17:22.406Z,8.03
2018-03-28T08:19:49.553Z,8.07
2018-03-28T08:22:16.745Z,8.11
2018-03-28T08:24:45.086Z,7.76
2018-03-28T08:27:12.206Z,7.49
2018-03-28T08:29:39.470Z,7.67
2018-03-28T08:32:07.449Z,7.98
2018-03-28T08:34:34.661Z,7.73
2018-03-28T08:37:01.957Z,8.09
2018-03-28T08:39:29.210Z,7.80
2018-03-28T08:41:56.689Z,8.24
2018-03-28T08:44:28.571Z,8.17
2018-03-28T08:46:55.909Z,8.43
2018-03-28T08:49:23.241Z,7.90
2018-03-28T08:51:50.420Z,8.09
2018-03-28T08:54:18.974Z,8.06
2018-03-28T08:56:46.173Z,8.26
2018-03-28T08:59:13.414Z,8.67
2018-03-28T09:01:40.684Z,9.10
2018-03-28T09:04:11.923Z,9.01
2018-03-28T09:06:39.237Z,9.30
2018-03-28T09:09:07.328Z,8.63
2018-03-28T09:11:34.659Z,8.43
2018-03-28T09:14:05.421Z,8.57
2018-03-28T09:16:32.677Z,8.45
2018-03-28T09:19:00.031Z,8.55
2018-03-28T09:21:27.162Z,8.71
2018-03-28T09:24:04.124Z,9.01
2018-03-28T09:26:31.457Z,8.94
2018-03-28T09:28:58.613Z,8.67
2018-03-28T09:31:25.761Z,9.34
2018-03-28T09:33:57.878Z,8.70
2018-03-28T09:36:25.227Z,9.00
2018-03-28T09:38:52.501Z,8.79
2018-03-28T09:41:19.857Z,8.80
2018-03-28T09:43:46.994Z,8.76
2018-03-28T09:46:14.283Z,9.21
2018-03-28T09:48:41.599Z,8.82
2018-03-28T09:51:09.631Z,8.69
2018-03-28T09:53:37.316Z,8.82
2018-03-28T09:56:07.702Z,8.49
2018-03-28T09:58:34.835Z,8.36
2018-03-28T10:01:08.071Z,8.50
2018-03-28T10:03:41.186Z,8.35
2018-03-28T10:06:08.360Z,8.73
2018-03-28T10:08:35.473Z,8.53
2018-03-28T10:11:02.641Z,8.69
2018-03-28T10:13:29.772Z,9.09
2018-03-28T10:15:57.957Z,9.32
2018-03-28T10:18:25.221Z,9.08
2018-03-28T10:20:52.466Z,9.02
2018-03-28T10:23:19.619Z,9.11
2018-03-28T10:25:50.462Z,9.33
2018-03-28T10:28:17.873Z,8.87
2018-03-28T10:30:45.102Z,8.99
2018-03-28T10:33:12.448Z,9.02
2018-03-28T10:35:40.812Z,8.89
2018-03-28T10:38:08.101Z,8.70
2018-03-28T10:40:35.410Z,8.77
2018-03-28T10:43:02.638Z,8.60
2018-03-28T10:45:30.327Z,8.77
2018-03-28T10:47:58.250Z,8.94
2018-03-28T10:50:25.480Z,8.97
2018-03-28T10:52:52.853Z,8.82
2018-03-28T10:55:20.926Z,9.00
2018-03-28T10:57:48.086Z,8.89
2018-03-28T11:00:15.278Z,9.37
2018-03-28T11:02:43.175Z,8.89
2018-03-28T11:05:14.378Z,8.85
2018-03-28T11:07:41.566Z,8.64
2018-03-28T11:10:08.820Z,8.55
2018-03-28T11:12:36.130Z,8.48
2018-03-28T11:15:04.413Z,8.76
2018-03-28T11:17:31.570Z,8.88
2018-03-28T11:19:58.874Z,8.53
2018-03-28T11:22:26.081Z,8.49
2018-03-28T11:25:00.149Z,8.20
2018-03-28T11:27:27.298Z,8.35
2018-03-28T11:29:54.494Z,8.20
2018-03-28T11:32:21.687Z,8.61
2018-03-28T11:34:52.580Z,8.44
2018-03-28T11:37:20.443Z,8.35
2018-03-28T11:39:47.619Z,8.58
2018-03-28T11:42:15.212Z,8.56
2018-03-28T11:44:42.654Z,9.08
2018-03-28T11:47:10.549Z,8.57
2018-03-28T11:49:37.791Z,8.69
2018-03-28T11:52:04.909Z,8.63
2018-03-28T11:54:35.464Z,8.70
2018-03-28T11:57:02.587Z,8.43
2018-03-28T11:59:29.874Z,7.99
2018-03-28T12:01:57.117Z,7.94
2018-03-28T12:04:30.250Z,8.15
2018-03-28T12:06:57.444Z,8.42
2018-03-28T12:09:24.983Z,8.00
2018-03-28T12:11:52.059Z,8.30
2018-03-28T12:14:19.459Z,7.95
2018-03-28T12:16:46.677Z,8.15
2018-03-28T12:19:13.961Z,7.95
2018-03-28T12:21:41.089Z,7.93
2018-03-28T12:24:08.389Z,8.10
2018-03-28T12:26:35.672Z,7.78
2018-03-28T12:29:03.041Z,7.90
2018-03-28T12:31:30.293Z,7.63
2018-03-28T12:34:01.153Z,7.67
2018-03-28T12:36:28.289Z,7.94
2018-03-28T12:38:56.147Z,7.83
2018-03-28T12:41:23.217Z,7.72
2018-03-28T12:43:55.973Z,7.72
2018-03-28T12:46:24.069Z,7.62
2018-03-28T12:48:51.228Z,7.94
2018-03-28T12:51:18.524Z,8.10
2018-03-28T12:53:45.628Z,7.84
2018-03-28T12:56:12.778Z,7.66
2018-03-28T12:58:39.853Z,8.00
2018-03-28T13:01:07.182Z,7.80
2018-03-28T13:03:35.620Z,7.80
2018-03-28T13:06:02.805Z,8.05
2018-03-28T13:08:29.773Z,7.63
2018-03-28T13:10:57.685Z,7.73
2018-03-28T13:13:29.052Z,7.77
2018-03-28T13:15:56.389Z,7.67
2018-03-28T13:18:23.626Z,7.57
2018-03-28T13:20:50.929Z,7.79
2018-03-28T13:23:18.142Z,7.60
2018-03-28T13:25:45.269Z,7.88
2018-03-28T13:28:12.521Z,7.69
2018-03-28T13:30:40.533Z,7.66
2018-03-28T13:33:07.734Z,7.65
2018-03-28T13:35:34.927Z,7.63
2018-03-28T13:38:02.070Z,7.41
2018-03-28T13:40:29.353Z,7.48
2018-03-28T13:42:56.759Z,7.21
2018-03-28T13:45:25.284Z,7.34
2018-03-28T13:47:52.626Z,7.48
2018-03-28T13:50:19.904Z,7.31
2018-03-28T13:52:47.168Z,7.25
2018-03-28T13:55:18.265Z,7.04
2018-03-28T13:57:45.446Z,7.13
2018-03-28T14:00:13.361Z,7.16
2018-03-28T14:02:40.504Z,7.05
2018-03-28T14:05:12.058Z,6.89
2018-03-28T14:07:39.421Z,6.90
2018-03-28T14:10:06.718Z,6.90
2018-03-28T14:12:33.982Z,6.91
2018-03-28T14:15:01.332Z,7.03
2018-03-28T14:17:29.019Z,6.75
2018-03-28T14:19:56.275Z,6.97
2018-03-28T14:22:23.495Z,7.15
2018-03-28T14:24:51.906Z,6.79
2018-03-28T14:27:19.134Z,6.87
2018-03-28T14:29:46.420Z,6.82
2018-03-28T14:32:13.789Z,6.72
2018-03-28T14:34:44.155Z,6.59
2018-03-28T14:37:11.259Z,6.89
2018-03-28T14:39:38.637Z,6.72
2018-03-28T14:42:05.874Z,6.77
2018-03-28T14:44:36.491Z,6.61
2018-03-28T14:47:04.257Z,6.65
2018-03-28T14:49:31.868Z,6.57
2018-03-28T14:51:59.125Z,6.71
2018-03-28T14:54:32.662Z,6.76
2018-03-28T14:56:59.953Z,6.67
2018-03-28T14:59:27.952Z,6.76
2018-03-28T15:01:55.192Z,6.72
2018-03-28T15:04:28.885Z,6.64
2018-03-28T15:06:56.049Z,6.68
2018-03-28T15:09:23.368Z,6.68
2018-03-28T15:11:51.062Z,6.70
2018-03-28T15:14:21.936Z,6.58
2018-03-28T15:16:49.251Z,6.54
2018-03-28T15:19:16.542Z,6.53
2018-03-28T15:21:43.851Z,6.54
2018-03-28T15:24:14.979Z,6.50
2018-03-28T15:26:42.102Z,6.59
2018-03-28T15:29:09.417Z,6.93
2018-03-28T15:31:36.658Z,6.77
2018-03-28T15:34:04.990Z,6.54
2018-03-28T15:36:32.317Z,6.68
2018-03-28T15:38:59.495Z,7.29
2018-03-28T15:41:27.761Z,6.79
2018-03-28T15:43:56.985Z,6.61
2018-03-28T15:46:24.311Z,6.59
2018-03-28T15:48:51.523Z,6.53
2018-03-28T15:51:18.668Z,6.60
2018-03-28T15:53:56.730Z,6.44
2018-03-28T15:56:23.852Z,6.53
2018-03-28T15:58:51.789Z,6.61
2018-03-28T16:01:19.094Z,6.54
2018-03-28T16:03:48.194Z,6.53
2018-03-28T16:06:15.608Z,6.52
2018-03-28T16:08:43.036Z,6.44
2018-03-28T16:11:10.447Z,6.55
2018-03-28T16:13:40.899Z,6.80
2018-03-28T16:16:08.480Z,6.59
2018-03-28T16:18:35.762Z,6.64
2018-03-28T16:21:02.969Z,6.53
2018-03-28T16:23:35.975Z,6.93
2018-03-28T16:26:03.154Z,6.65
2018-03-28T16:28:30.658Z,6.40
2018-03-28T16:30:58.725Z,6.68
2018-03-28T16:33:26.985Z,6.58
2018-03-28T16:35:54.970Z,6.49
2018-03-28T16:38:22.303Z,6.56
2018-03-28T16:40:49.645Z,6.43
2018-03-28T16:43:17.937Z,6.50
2018-03-28T16:45:45.425Z,6.55
2018-03-28T16:48:13.465Z,6.42
2018-03-28T16:50:40.517Z,6.46
2018-03-28T16:53:12.657Z,6.48
2018-03-28T16:55:40.336Z,6.65
2018-03-28T16:58:07.620Z,6.46
2018-03-28T17:00:35.057Z,6.55
2018-03-28T17:03:06.209Z,6.51
2018-03-28T17:05:34.582Z,6.52
2018-03-28T17:08:02.318Z,6.42
2018-03-28T17:10:30.185Z,6.56
2018-03-28T17:12:58.436Z,6.49
2018-03-28T17:15:25.762Z,6.38
2018-03-28T17:17:53.480Z,6.55
2018-03-28T17:20:20.675Z,6.36
2018-03-28T17:22:53.174Z,6.33
2018-03-28T17:25:20.446Z,6.48
2018-03-28T17:27:47.682Z,6.36
2018-03-28T17:30:14.877Z,6.30
2018-03-28T17:32:42.457Z,6.68
2018-03-28T17:35:09.865Z,6.90
2018-03-28T17:37:38.846Z,6.94
2018-03-28T17:40:06.056Z,6.86
2018-03-28T17:42:33.347Z,6.95
2018-03-28T17:45:00.607Z,7.10
2018-03-28T17:47:27.838Z,7.18
2018-03-28T17:49:56.179Z,7.17
2018-03-28T17:52:23.374Z,7.21
2018-03-28T17:54:51.671Z,7.14
2018-03-28T17:57:20.258Z,7.33
2018-03-28T17:59:47.403Z,7.28
2018-03-28T18:02:16.283Z,7.37
2018-03-28T18:04:44.543Z,7.44
2018-03-28T18:07:11.880Z,7.59
2018-03-28T18:09:39.067Z,7.47
2018-03-28T18:12:06.362Z,7.42
2018-03-28T18:14:34.698Z,7.49
2018-03-28T18:17:02.046Z,7.01
2018-03-28T18:19:29.330Z,6.57
2018-03-28T18:21:56.630Z,6.56
2018-03-28T18:24:30.522Z,6.93
2018-03-28T18:26:57.692Z,6.61
2018-03-28T18:29:24.862Z,6.83
2018-03-28T18:31:52.673Z,7.21
2018-03-28T18:34:20.814Z,6.76
2018-03-28T18:36:48.037Z,6.76
2018-03-28T18:39:16.081Z,6.94
2018-03-28T18:41:43.538Z,6.90
2018-03-28T18:44:12.074Z,7.23
2018-03-28T18:46:39.291Z,7.28
2018-03-28T18:49:06.598Z,6.65
2018-03-28T18:51:33.923Z,6.45
2018-03-28T18:54:04.683Z,6.49
2018-03-28T18:56:32.727Z,6.36
2018-03-28T18:59:00.602Z,6.55
2018-03-28T19:01:28.321Z,6.89
2018-03-28T19:03:55.792Z,7.19
2018-03-28T19:06:23.122Z,6.79
2018-03-28T19:08:50.982Z,7.17
2018-03-28T19:11:18.862Z,7.15
2018-03-28T19:13:46.346Z,6.97
2018-03-28T19:16:13.578Z,7.12
2018-03-28T19:18:41.750Z,7.11
2018-03-28T19:21:09.131Z,7.24
2018-03-28T19:23:36.509Z,6.99
2018-03-28T19:26:03.923Z,7.28
2018-03-28T19:28:31.141Z,6.79
2018-03-28T19:30:58.467Z,6.40
2018-03-28T19:33:27.435Z,6.42
2018-03-28T19:35:54.675Z,6.39
2018-03-28T19:38:22.032Z,6.35
2018-03-28T19:40:49.290Z,6.40
2018-03-28T19:43:19.859Z,6.37
2018-03-28T19:45:46.957Z,6.24
2018-03-28T19:48:14.274Z,6.31
2018-03-28T19:50:41.543Z,6.33
2018-03-28T19:53:08.758Z,6.48
2018-03-28T19:55:36.594Z,6.47
2018-03-28T19:58:03.830Z,7.26
2018-03-28T20:00:30.920Z,7.29
2018-03-28T20:02:58.390Z,7.62
2018-03-28T20:05:25.680Z,7.54
2018-03-28T20:07:53.927Z,7.56
2018-03-28T20:10:21.172Z,6.54
2018-03-28T20:12:49.358Z,6.35
2018-03-28T20:15:16.578Z,6.77
2018-03-28T20:17:43.765Z,6.39
2018-03-28T20:20:10.970Z,6.52
2018-03-28T20:22:38.313Z,6.37
2018-03-28T20:25:05.642Z,6.35
2018-03-28T20:27:32.762Z,6.37
2018-03-28T20:30:00.132Z,6.98
2018-03-28T20:32:27.354Z,6.54
2018-03-28T20:34:54.573Z,7.03
2018-03-28T20:37:21.857Z,6.92
2018-03-28T20:39:49.674Z,6.86
2018-03-28T20:42:20.957Z,6.31
2018-03-28T20:44:48.203Z,6.32
2018-03-28T20:47:15.561Z,6.52
2018-03-28T20:49:42.718Z,6.77
2018-03-28T20:52:17.259Z,7.03
2018-03-28T20:54:44.549Z,6.67
2018-03-28T20:57:12.081Z,6.69
2018-03-28T20:59:39.585Z,6.72
2018-03-28T21:02:06.777Z,6.63
2018-03-28T21:04:34.590Z,6.85
2018-03-28T21:07:01.800Z,6.91
2018-03-28T21:09:29.122Z,7.02
2018-03-28T21:11:56.374Z,7.15
2018-03-28T21:14:29.759Z,7.13
2018-03-28T21:16:56.986Z,6.83
2018-03-28T21:19:24.334Z,6.81
2018-03-28T21:21:51.548Z,6.94
2018-03-28T21:24:22.675Z,6.91
2018-03-28T21:26:49.882Z,6.60
2018-03-28T21:29:17.446Z,6.36
2018-03-28T21:31:44.628Z,6.26
2018-03-28T21:34:14.953Z,6.17
2018-03-28T21:36:42.255Z,6.12
2018-03-28T21:39:09.550Z,6.19
2018-03-28T21:41:36.733Z,6.51
2018-03-28T21:44:04.858Z,6.90
2018-03-28T21:46:32.189Z,6.89
2018-03-28T21:48:59.386Z,7.12
2018-03-28T21:51:26.580Z,7.08
2018-03-28T21:53:57.246Z,7.08
2018-03-28T21:56:24.433Z,7.13
2018-03-28T21:58:51.646Z,7.15
2018-03-28T22:01:18.865Z,7.21
2018-03-28T22:03:47.269Z,7.17
2018-03-28T22:06:14.469Z,6.57
2018-03-28T22:08:41.609Z,7.08
2018-03-28T22:11:08.693Z,6.61
2018-03-28T22:13:39.974Z,6.42
2018-03-28T22:16:07.092Z,6.49
2018-03-28T22:18:35.361Z,6.42
2018-03-28T22:21:02.414Z,6.31
2018-03-28T22:23:31.096Z,6.47
2018-03-28T22:25:58.330Z,6.97
2018-03-28T22:28:25.617Z,6.49
2018-03-28T22:30:52.642Z,6.54
2018-03-28T22:33:26.244Z,6.45
2018-03-28T22:35:53.409Z,6.59
2018-03-28T22:38:20.540Z,6.52
2018-03-28T22:40:47.575Z,6.63
2018-03-28T22:43:25.963Z,6.70
2018-03-28T22:45:53.287Z,6.76
2018-03-28T22:48:20.390Z,6.53
2018-03-28T22:50:47.621Z,6.67
2018-03-28T22:53:18.165Z,6.59
2018-03-28T22:55:45.345Z,6.55
2018-03-28T22:58:12.623Z,6.44
2018-03-28T23:00:39.925Z,6.36
2018-03-28T23:03:07.315Z,6.31
2018-03-28T23:05:34.456Z,6.29
2018-03-28T23:08:02.709Z,6.33
2018-03-28T23:10:29.830Z,6.05
2018-03-28T23:13:00.643Z,5.92
2018-03-28T23:15:27.838Z,6.06
2018-03-28T23:17:55.397Z,6.21
2018-03-28T23:20:22.521Z,6.18
2018-03-28T23:22:53.153Z,6.32
2018-03-28T23:25:20.221Z,6.26
2018-03-28T23:27:47.349Z,6.15
2018-03-28T23:30:14.496Z,6.33
2018-03-28T23:32:42.694Z,6.27
2018-03-28T23:35:09.994Z,6.30
2018-03-28T23:37:37.280Z,6.21
2018-03-28T23:40:04.385Z,5.95
2018-03-28T23:42:37.674Z,6.01
2018-03-28T23:45:04.732Z,6.19
2018-03-28T23:47:31.866Z,5.68
2018-03-28T23:49:59.076Z,5.80
2018-03-28T23:52:27.460Z,5.84
2018-03-28T23:54:55.498Z,5.60
2018-03-28T23:57:22.813Z,5.75
2018-03-28T23:59:50.064Z,5.85
